createdAt,value
2023-09-05T00:02:18.609Z,83.75
2023-09-05T00:04:45.861Z,83.69
2023-09-05T00:07:13.114Z,84.20
2023-09-05T00:09:39.675Z,84.37
2023-09-05T00:12:07.954Z,84.72
2023-09-05T00:14:34.400Z,84.62
2023-09-05T00:17:00.956Z,84.44
2023-09-05T00:19:27.468Z,84.64
2023-09-05T00:21:53.900Z,84.69
2023-09-05T00:24:34.499Z,85.39
2023-09-05T00:27:05.133Z,84.47
2023-09-05T00:29:34.946Z,85.12
2023-09-05T00:32:01.700Z,85.66
2023-09-05T00:34:29.439Z,85.31
2023-09-05T00:36:56.650Z,85.66
2023-09-05T00:39:23.131Z,85.65
2023-09-05T00:41:49.565Z,85.81
2023-09-05T00:44:16.140Z,85.22
2023-09-05T00:46:43.312Z,86.04
2023-09-05T00:49:11.768Z,86.21
2023-09-05T00:51:39.014Z,86.04
2023-09-05T00:54:07.282Z,84.82
2023-09-05T00:56:36.487Z,84.61
2023-09-05T00:59:04.576Z,85.54
2023-09-05T01:01:31.691Z,85.71
2023-09-05T01:03:58.726Z,86.00
2023-09-05T01:06:56.119Z,84.92
2023-09-05T01:09:38.043Z,86.02
2023-09-05T01:12:05.840Z,85.85
2023-09-05T01:14:32.580Z,85.71
2023-09-05T01:17:02.420Z,86.22
2023-09-05T01:19:30.947Z,85.91
2023-09-05T01:22:02.435Z,86.29
2023-09-05T01:24:28.901Z,86.39
2023-09-05T01:26:57.023Z,85.84
2023-09-05T01:29:30.948Z,86.03
2023-09-05T01:32:00.465Z,86.34
2023-09-05T01:34:26.885Z,85.78
2023-09-05T01:36:53.372Z,86.61
2023-09-05T01:39:20.530Z,86.32
2023-09-05T01:41:47.009Z,86.39
2023-09-05T01:44:13.492Z,86.90
2023-09-05T01:46:40.047Z,86.81
2023-09-05T01:49:06.889Z,86.45
2023-09-05T01:51:33.452Z,86.96
2023-09-05T01:53:59.918Z,86.85
2023-09-05T01:56:27.501Z,85.92
2023-09-05T01:58:53.931Z,86.08
2023-09-05T02:01:20.394Z,86.73
2023-09-05T02:03:47.145Z,86.77
2023-09-05T02:06:17.756Z,86.65
2023-09-05T02:08:44.281Z,87.13
2023-09-05T02:11:10.973Z,86.84
2023-09-05T02:13:37.661Z,86.67
2023-09-05T02:16:04.440Z,86.63
2023-09-05T02:18:30.944Z,86.88
2023-09-05T02:21:02.243Z,86.78
2023-09-05T02:23:29.247Z,87.02
2023-09-05T02:26:02.807Z,87.22
2023-09-05T02:28:29.794Z,87.32
2023-09-05T02:30:56.994Z,88.07
2023-09-05T02:33:24.186Z,87.38
2023-09-05T02:35:51.338Z,86.93
2023-09-05T02:38:17.792Z,87.40
2023-09-05T02:40:47.793Z,87.19
2023-09-05T02:43:14.984Z,87.10
2023-09-05T02:45:41.637Z,87.60
2023-09-05T02:48:08.739Z,87.73
2023-09-05T02:50:35.433Z,87.60
2023-09-05T02:53:01.949Z,87.50
2023-09-05T02:55:28.402Z,87.10
2023-09-05T02:57:54.937Z,87.86
2023-09-05T03:00:21.731Z,88.26
2023-09-05T03:02:50.581Z,87.79
2023-09-05T03:05:17.131Z,87.48
2023-09-05T03:07:43.524Z,88.09
2023-09-05T03:10:10.179Z,87.54
2023-09-05T03:12:36.592Z,87.71
2023-09-05T03:15:03.253Z,87.18
2023-09-05T03:17:29.709Z,86.83
2023-09-05T03:19:56.141Z,87.12
2023-09-05T03:22:22.558Z,87.06
2023-09-05T03:24:49.085Z,87.68
2023-09-05T03:27:15.562Z,88.04
2023-09-05T03:29:42.005Z,88.10
2023-09-05T03:32:08.440Z,88.00
2023-09-05T03:34:35.702Z,88.29
2023-09-05T03:37:02.279Z,88.30
2023-09-05T03:39:28.715Z,87.68
2023-09-05T03:41:59.933Z,87.88
2023-09-05T03:44:26.368Z,87.28
2023-09-05T03:46:55.025Z,88.06
2023-09-05T03:49:21.496Z,87.88
2023-09-05T03:51:48.048Z,87.07
2023-09-05T03:54:14.728Z,87.81
2023-09-05T03:56:41.278Z,88.00
2023-09-05T03:59:07.732Z,89.13
2023-09-05T04:01:35.993Z,88.23
2023-09-05T04:04:02.551Z,88.13
2023-09-05T04:06:29.160Z,86.53
2023-09-05T04:08:55.624Z,87.23
2023-09-05T04:11:22.122Z,86.54
2023-09-05T04:13:49.414Z,87.26
2023-09-05T04:16:15.962Z,88.07
2023-09-05T04:18:42.642Z,86.97
2023-09-05T04:21:09.434Z,86.49
2023-09-05T04:23:35.902Z,87.34
2023-09-05T04:26:03.095Z,86.59
2023-09-05T04:28:31.247Z,86.63
2023-09-05T04:31:03.158Z,86.98
2023-09-05T04:33:39.581Z,87.29
2023-09-05T04:36:09.975Z,86.98
2023-09-05T04:38:37.495Z,87.49
2023-09-05T04:41:05.123Z,88.05
2023-09-05T04:43:31.670Z,88.23
2023-09-05T04:45:58.785Z,88.56
2023-09-05T04:48:26.252Z,87.62
2023-09-05T04:50:54.027Z,86.78
2023-09-05T04:53:21.802Z,87.00
2023-09-05T04:55:51.792Z,87.30
2023-09-05T04:58:18.285Z,87.71
2023-09-05T05:00:44.785Z,87.57
2023-09-05T05:03:11.480Z,87.00
2023-09-05T05:05:38.048Z,88.15
2023-09-05T05:08:04.870Z,88.14
2023-09-05T05:10:34.926Z,88.51
2023-09-05T05:13:01.427Z,88.23
2023-09-05T05:15:28.128Z,88.79
2023-09-05T05:17:54.707Z,89.10
2023-09-05T05:20:21.297Z,88.27
2023-09-05T05:22:47.739Z,88.01
2023-09-05T05:25:14.274Z,88.11
2023-09-05T05:27:41.850Z,88.11
2023-09-05T05:30:09.816Z,87.69
2023-09-05T05:32:36.228Z,87.04
2023-09-05T05:35:02.866Z,87.45
2023-09-05T05:37:30.447Z,87.29
2023-09-05T05:39:56.972Z,87.48
2023-09-05T05:42:23.463Z,87.25
2023-09-05T05:44:49.942Z,87.05
2023-09-05T05:47:16.404Z,86.64
2023-09-05T05:49:42.836Z,86.66
2023-09-05T05:52:11.768Z,86.02
2023-09-05T05:54:38.126Z,85.88
2023-09-05T05:57:04.787Z,86.27
2023-09-05T05:59:31.301Z,86.08
2023-09-05T06:01:58.360Z,86.06
2023-09-05T06:04:25.736Z,85.27
2023-09-05T06:06:54.096Z,85.81
2023-09-05T06:09:20.848Z,85.42
2023-09-05T06:11:47.885Z,85.16
2023-09-05T06:14:15.837Z,84.61
2023-09-05T06:16:42.725Z,83.94
2023-09-05T06:19:09.774Z,84.82
2023-09-05T06:21:36.462Z,84.27
2023-09-05T06:24:02.970Z,84.24
2023-09-05T06:26:29.490Z,83.36
2023-09-05T06:28:55.920Z,83.74
2023-09-05T06:31:22.480Z,83.54
2023-09-05T06:33:48.982Z,83.71
2023-09-05T06:36:15.444Z,83.17
2023-09-05T06:38:42.901Z,83.00
2023-09-05T06:41:11.210Z,83.48
2023-09-05T06:43:38.554Z,83.53
2023-09-05T06:46:06.819Z,83.42
2023-09-05T06:48:35.821Z,82.99
2023-09-05T06:51:02.470Z,82.79
2023-09-05T06:53:29.940Z,83.12
2023-09-05T06:55:56.448Z,83.54
2023-09-05T06:58:24.838Z,83.03
2023-09-05T07:00:56.025Z,82.95
2023-09-05T07:03:26.704Z,82.47
2023-09-05T07:06:04.953Z,83.05
2023-09-05T07:08:33.216Z,82.51
2023-09-05T07:10:59.760Z,82.32
2023-09-05T07:13:26.611Z,81.09
2023-09-05T07:15:53.896Z,81.34
2023-09-05T07:18:20.675Z,81.25
2023-09-05T07:20:47.180Z,80.59
2023-09-05T07:23:13.608Z,80.14
2023-09-05T07:25:40.484Z,78.41
2023-09-05T07:28:07.689Z,78.65
2023-09-05T07:30:34.564Z,78.04
2023-09-05T07:33:01.295Z,77.72
2023-09-05T07:35:27.750Z,75.34
2023-09-05T07:37:54.260Z,75.28
2023-09-05T07:40:23.618Z,74.24
2023-09-05T07:42:51.607Z,72.36
2023-09-05T07:45:18.193Z,71.56
2023-09-05T07:47:45.441Z,71.78
2023-09-05T07:50:12.166Z,69.81
2023-09-05T07:52:38.886Z,68.68
2023-09-05T07:55:06.001Z,68.75
2023-09-05T07:57:32.637Z,67.20
2023-09-05T07:59:59.175Z,66.46
2023-09-05T08:02:25.643Z,65.30
2023-09-05T08:04:52.130Z,64.74
2023-09-05T08:07:18.732Z,65.90
2023-09-05T08:09:45.742Z,64.80
2023-09-05T08:12:12.299Z,64.75
2023-09-05T08:14:39.017Z,64.13
2023-09-05T08:17:05.455Z,63.86
2023-09-05T08:19:32.798Z,63.32
2023-09-05T08:21:59.364Z,63.59
2023-09-05T08:24:25.860Z,63.24
2023-09-05T08:26:52.357Z,62.47
2023-09-05T08:29:20.065Z,62.44
2023-09-05T08:31:46.654Z,61.26
2023-09-05T08:34:13.172Z,61.57
2023-09-05T08:36:39.642Z,62.30
2023-09-05T08:39:06.214Z,59.99
2023-09-05T08:41:32.861Z,59.61
2023-09-05T08:44:00.098Z,60.10
2023-09-05T08:46:29.469Z,60.63
2023-09-05T08:48:56.738Z,60.33
2023-09-05T08:51:31.478Z,60.08
2023-09-05T08:54:00.583Z,61.04
2023-09-05T08:56:27.482Z,58.50
2023-09-05T08:58:58.028Z,58.31
2023-09-05T09:01:26.999Z,58.98
2023-09-05T09:03:58.412Z,59.71
2023-09-05T09:06:27.745Z,59.15
2023-09-05T09:08:55.263Z,58.68
2023-09-05T09:11:23.594Z,59.54
2023-09-05T09:13:57.874Z,59.25
2023-09-05T09:16:24.544Z,57.54
2023-09-05T09:19:01.158Z,58.52
2023-09-05T09:21:29.978Z,57.41
2023-09-05T09:24:09.065Z,58.03
2023-09-05T09:26:39.799Z,58.13
2023-09-05T09:29:10.332Z,57.18
2023-09-05T09:31:38.834Z,57.15
2023-09-05T09:34:07.439Z,56.44
2023-09-05T09:36:35.798Z,57.30
2023-09-05T09:39:12.064Z,55.54
2023-09-05T09:41:48.974Z,56.22
2023-09-05T09:44:26.970Z,56.21
2023-09-05T09:46:55.272Z,56.34
2023-09-05T09:49:24.357Z,55.95
2023-09-05T09:51:57.341Z,54.73
2023-09-05T09:54:36.165Z,54.64
2023-09-05T09:57:05.392Z,56.02
2023-09-05T09:59:37.196Z,55.30
2023-09-05T10:02:14.940Z,55.14
2023-09-05T10:04:43.623Z,54.37
2023-09-05T10:07:17.740Z,55.92
2023-09-05T10:09:49.150Z,54.75
2023-09-05T10:12:20.282Z,54.61
2023-09-05T10:14:48.808Z,55.17
2023-09-05T10:17:16.321Z,55.55
2023-09-05T10:19:45.254Z,53.26
2023-09-05T10:22:17.764Z,53.22
2023-09-05T10:24:44.839Z,55.19
2023-09-05T10:27:12.166Z,52.98
2023-09-05T10:29:43.388Z,53.41
2023-09-05T10:32:23.172Z,53.24
2023-09-05T10:34:49.735Z,53.35
2023-09-05T10:37:19.352Z,50.93
2023-09-05T10:39:47.681Z,50.76
2023-09-05T10:42:15.009Z,50.71
2023-09-05T10:44:51.415Z,50.80
2023-09-05T10:47:29.508Z,51.94
2023-09-05T10:50:06.654Z,52.31
2023-09-05T10:52:33.660Z,52.84
2023-09-05T10:55:33.150Z,51.49
2023-09-05T10:58:00.301Z,49.75
2023-09-05T11:00:30.895Z,48.42
2023-09-05T11:03:15.590Z,50.99
2023-09-05T11:05:43.632Z,51.93
2023-09-05T11:08:24.076Z,49.85
2023-09-05T11:10:56.495Z,49.51
2023-09-05T11:13:23.217Z,51.51
2023-09-05T11:15:58.928Z,49.75
2023-09-05T11:18:25.471Z,49.53
2023-09-05T11:20:51.941Z,48.65
2023-09-05T11:23:28.986Z,48.62
2023-09-05T11:25:57.831Z,47.32
2023-09-05T11:28:25.221Z,47.20
2023-09-05T11:31:04.236Z,47.45
2023-09-05T11:33:31.233Z,45.67
2023-09-05T11:35:58.722Z,46.74
2023-09-05T11:38:27.054Z,47.41
2023-09-05T11:40:56.617Z,44.51
2023-09-05T11:43:23.868Z,46.63
2023-09-05T11:45:56.108Z,44.60
2023-09-05T11:48:24.453Z,44.24
2023-09-05T11:50:52.069Z,46.61
2023-09-05T11:53:20.590Z,46.04
2023-09-05T11:55:48.576Z,45.14
2023-09-05T11:58:17.847Z,44.04
2023-09-05T12:00:46.058Z,44.73
2023-09-05T12:03:16.346Z,45.07
2023-09-05T12:05:44.158Z,43.02
2023-09-05T12:08:29.639Z,43.34
2023-09-05T12:10:58.476Z,43.84
2023-09-05T12:13:40.985Z,45.85
2023-09-05T12:16:09.535Z,43.42
2023-09-05T12:18:36.287Z,45.72
2023-09-05T12:21:02.776Z,46.05
2023-09-05T12:23:30.508Z,44.71
2023-09-05T12:25:58.413Z,45.85
2023-09-05T12:28:26.908Z,43.03
2023-09-05T12:31:06.723Z,45.84
2023-09-05T12:33:33.960Z,42.59
2023-09-05T12:36:00.581Z,43.17
2023-09-05T12:38:30.675Z,43.37
2023-09-05T12:41:00.734Z,44.84
2023-09-05T12:43:27.231Z,43.91
2023-09-05T12:45:54.765Z,42.64
2023-09-05T12:48:21.281Z,43.05
2023-09-05T12:50:50.241Z,41.40
2023-09-05T12:53:20.761Z,43.00
2023-09-05T12:55:49.898Z,44.44
2023-09-05T12:58:16.450Z,42.89
2023-09-05T13:00:43.463Z,40.59
2023-09-05T13:03:12.247Z,40.78
2023-09-05T13:05:40.319Z,40.70
2023-09-05T13:08:06.854Z,42.08
2023-09-05T13:10:33.432Z,41.84
2023-09-05T13:13:02.746Z,41.45
2023-09-05T13:15:31.975Z,40.10
2023-09-05T13:17:58.843Z,40.29
2023-09-05T13:20:25.578Z,38.73
2023-09-05T13:22:52.508Z,41.07
2023-09-05T13:25:20.902Z,39.96
2023-09-05T13:27:48.548Z,39.75
2023-09-05T13:30:16.145Z,39.58
2023-09-05T13:32:42.806Z,40.32
2023-09-05T13:35:10.840Z,41.00
2023-09-05T13:37:37.642Z,40.85
2023-09-05T13:40:05.050Z,39.54
2023-09-05T13:42:31.844Z,41.65
2023-09-05T13:44:58.358Z,41.50
2023-09-05T13:47:25.047Z,43.18
2023-09-05T13:49:51.467Z,42.14
2023-09-05T13:52:17.930Z,38.40
2023-09-05T13:54:46.415Z,38.57
2023-09-05T13:57:13.668Z,43.10
2023-09-05T13:59:40.369Z,38.98
2023-09-05T14:02:07.164Z,40.28
2023-09-05T14:04:33.734Z,40.41
2023-09-05T14:07:01.398Z,38.76
2023-09-05T14:09:27.881Z,41.03
2023-09-05T14:11:54.403Z,40.06
2023-09-05T14:14:20.828Z,37.37
2023-09-05T14:16:56.052Z,40.86
2023-09-05T14:19:24.095Z,41.19
2023-09-05T14:21:50.860Z,38.84
2023-09-05T14:24:17.424Z,39.71
2023-09-05T14:26:43.869Z,38.34
2023-09-05T14:29:10.395Z,41.00
2023-09-05T14:31:36.961Z,37.48
2023-09-05T14:34:03.695Z,38.25
2023-09-05T14:36:30.264Z,38.12
2023-09-05T14:38:57.792Z,39.97
2023-09-05T14:41:31.918Z,39.60
2023-09-05T14:44:00.879Z,43.51
2023-09-05T14:46:27.568Z,38.92
2023-09-05T14:48:54.262Z,41.77
2023-09-05T14:51:20.761Z,39.75
2023-09-05T14:53:48.154Z,41.62
2023-09-05T14:56:15.232Z,40.46
2023-09-05T14:58:41.691Z,41.68
2023-09-05T15:01:08.177Z,40.30
2023-09-05T15:03:34.911Z,40.91
2023-09-05T15:06:01.411Z,38.82
2023-09-05T15:08:28.121Z,40.40
2023-09-05T15:10:54.723Z,39.80
2023-09-05T15:13:21.173Z,39.28
2023-09-05T15:15:49.844Z,40.67
2023-09-05T15:18:16.838Z,40.72
2023-09-05T15:20:43.409Z,42.02
2023-09-05T15:23:09.892Z,40.31
2023-09-05T15:25:37.475Z,40.68
2023-09-05T15:28:04.206Z,39.50
2023-09-05T15:30:35.025Z,39.26
2023-09-05T15:33:01.586Z,41.20
2023-09-05T15:35:28.493Z,39.65
2023-09-05T15:37:55.016Z,38.84
2023-09-05T15:40:22.115Z,42.09
2023-09-05T15:42:48.559Z,39.58
2023-09-05T15:45:15.109Z,43.14
2023-09-05T15:47:42.210Z,40.40
2023-09-05T15:50:09.309Z,40.09
2023-09-05T15:52:35.772Z,40.94
2023-09-05T15:55:02.270Z,42.62
2023-09-05T15:57:28.895Z,42.44
2023-09-05T15:59:58.266Z,42.96
2023-09-05T16:02:24.899Z,41.11
2023-09-05T16:04:51.362Z,42.45
2023-09-05T16:07:17.840Z,41.23
2023-09-05T16:09:44.691Z,43.93
2023-09-05T16:12:11.443Z,43.34
2023-09-05T16:14:41.800Z,45.47
2023-09-05T16:17:08.892Z,45.71
2023-09-05T16:19:37.212Z,45.06
2023-09-05T16:22:03.955Z,47.34
2023-09-05T16:24:30.556Z,46.53
2023-09-05T16:26:59.199Z,48.04
2023-09-05T16:29:25.817Z,47.21
2023-09-05T16:31:52.474Z,49.04
2023-09-05T16:34:18.952Z,48.84
2023-09-05T16:36:45.413Z,50.40
2023-09-05T16:39:11.984Z,49.45
2023-09-05T16:41:38.569Z,47.45
2023-09-05T16:44:05.583Z,50.32
2023-09-05T16:46:32.344Z,49.91
2023-09-05T16:48:59.039Z,48.09
2023-09-05T16:51:26.255Z,49.14
2023-09-05T16:53:52.845Z,49.07
2023-09-05T16:56:19.761Z,50.03
2023-09-05T16:58:46.367Z,49.40
2023-09-05T17:01:13.345Z,50.75
2023-09-05T17:03:39.943Z,49.22
2023-09-05T17:06:06.472Z,51.51
2023-09-05T17:08:33.297Z,51.31
2023-09-05T17:11:00.343Z,50.92
2023-09-05T17:13:27.191Z,51.47
2023-09-05T17:15:54.008Z,51.50
2023-09-05T17:18:20.982Z,52.05
2023-09-05T17:20:51.614Z,52.92
2023-09-05T17:23:22.938Z,52.55
2023-09-05T17:25:50.394Z,51.54
2023-09-05T17:28:20.097Z,53.90
2023-09-05T17:30:47.111Z,52.91
2023-09-05T17:33:13.965Z,53.34
2023-09-05T17:35:41.921Z,54.22
2023-09-05T17:38:08.651Z,53.13
2023-09-05T17:40:38.124Z,54.88
2023-09-05T17:43:04.886Z,54.75
2023-09-05T17:45:31.488Z,56.84
2023-09-05T17:47:57.956Z,56.53
2023-09-05T17:50:24.595Z,54.93
2023-09-05T17:52:51.265Z,58.43
2023-09-05T17:55:18.135Z,55.05
2023-09-05T17:57:45.731Z,55.74
2023-09-05T18:00:13.992Z,58.12
2023-09-05T18:02:40.552Z,58.32
